Time;durP1;ratioP1;P1;durP2;ratioP2;P2;SDS_P1;SDS_P2;PMS_P1;PMS_P2;Temp;Humidity;BMP_temperature;BMP_pressure;BME280_temperature;BME280_humidity;BME280_pressure;Samples;Min_cycle;Max_cycle;Signal;HPM_P1;HPM_P2
2020/12/14 00:01:33;;;;;;;19.13;11.90;;;2.60;99.90;;;;;;4726258;30;20048;-79
2020/12/14 00:04:05;;;;;;;15.45;10.18;;;2.50;99.90;;;;;;4740825;30;20052;-79
2020/12/14 00:06:31;;;;;;;14.10;9.65;;;2.40;99.90;;;;;;4740169;30;20142;-79
2020/12/14 00:09:04;;;;;;;15.45;9.77;;;2.30;99.90;;;;;;4726243;30;20048;-80
2020/12/14 00:11:36;;;;;;;14.75;9.27;;;2.30;99.90;;;;;;4732884;30;20496;-79
2020/12/14 00:14:07;;;;;;;15.80;9.23;;;2.20;99.90;;;;;;4741018;30;20147;-79
2020/12/14 00:16:40;;;;;;;15.18;9.05;;;2.10;99.90;;;;;;4757085;30;20611;-79
2020/12/14 00:19:07;;;;;;;13.82;9.30;;;2.00;99.90;;;;;;4757666;30;20052;-80
2020/12/14 00:21:38;;;;;;;13.40;9.75;;;1.90;99.90;;;;;;4757158;30;20424;-79
2020/12/14 00:24:09;;;;;;;13.35;8.93;;;1.80;99.90;;;;;;4743154;30;20052;-79
2020/12/14 00:26:36;;;;;;;13.32;8.52;;;1.80;99.90;;;;;;4742242;30;20060;-79
2020/12/14 00:29:07;;;;;;;12.18;7.85;;;1.80;99.90;;;;;;4757013;30;20058;-79
2020/12/14 00:31:33;;;;;;;13.90;9.32;;;1.80;99.90;;;;;;4742619;30;20052;-79
2020/12/14 00:33:59;;;;;;;12.13;8.20;;;1.80;99.90;;;;;;4756991;30;20062;-79
2020/12/14 00:36:31;;;;;;;10.32;7.53;;;1.80;99.90;;;;;;4756942;30;20047;-79
2020/12/14 00:39:03;;;;;;;10.65;6.90;;;1.70;99.90;;;;;;4757110;30;20500;-79
2020/12/14 00:41:29;;;;;;;10.10;7.15;;;1.60;99.90;;;;;;4757122;30;20118;-79
2020/12/14 00:44:00;;;;;;;11.10;7.57;;;1.50;99.90;;;;;;4757183;30;20090;-79
2020/12/14 00:46:32;;;;;;;10.50;7.10;;;1.50;99.90;;;;;;4756874;30;20146;-79
2020/12/14 00:48:58;;;;;;;10.10;7.82;;;1.50;99.90;;;;;;4756754;30;20420;-79
2020/12/14 00:51:30;;;;;;;10.32;7.20;;;1.50;99.90;;;;;;4756520;30;20066;-79
2020/12/14 00:53:58;;;;;;;12.00;7.90;;;1.50;99.90;;;;;;4756605;30;20138;-79
2020/12/14 00:56:24;;;;;;;11.93;7.95;;;1.50;99.90;;;;;;4756802;30;20504;-79
2020/12/14 00:58:51;;;;;;;12.38;8.30;;;1.50;99.90;;;;;;4742301;30;20151;-79
2020/12/14 01:01:18;;;;;;;11.57;8.05;;;1.50;99.90;;;;;;4756393;30;20159;-79
2020/12/14 01:03:49;;;;;;;11.40;7.63;;;1.50;99.90;;;;;;4756493;30;20055;-79
2020/12/14 01:06:16;;;;;;;10.00;6.97;;;1.40;99.90;;;;;;4756327;30;20055;-79
2020/12/14 01:08:42;;;;;;;17.45;12.43;;;1.40;99.90;;;;;;4755292;30;20051;-79
2020/12/14 01:11:09;;;;;;;11.65;9.05;;;1.40;99.90;;;;;;4755875;30;20043;-79
2020/12/14 01:13:35;;;;;;;12.52;9.50;;;1.30;99.90;;;;;;4755270;30;20048;-79
2020/12/14 01:16:08;;;;;;;15.30;11.10;;;1.30;99.90;;;;;;4741258;30;20052;-79
2020/12/14 01:18:39;;;;;;;9.02;7.10;;;1.30;99.90;;;;;;4741250;30;20497;-79
2020/12/14 01:21:05;;;;;;;8.80;6.35;;;1.20;99.90;;;;;;4755315;30;20119;-79
2020/12/14 01:23:36;;;;;;;8.90;5.95;;;1.10;99.90;;;;;;4741133;30;20058;-79
2020/12/14 01:26:08;;;;;;;8.68;6.32;;;1.00;99.90;;;;;;4740896;30;20435;-79
2020/12/14 01:28:39;;;;;;;9.32;6.10;;;1.00;99.90;;;;;;4740892;30;20052;-79
2020/12/14 01:31:10;;;;;;;8.32;5.60;;;1.00;99.90;;;;;;4740858;30;20062;-78
2020/12/14 01:33:37;;;;;;;9.02;6.63;;;1.00;99.90;;;;;;4754886;30;20427;-79
2020/12/14 01:36:08;;;;;;;9.13;6.75;;;1.00;99.90;;;;;;4755892;30;20050;-79
2020/12/14 01:38:39;;;;;;;8.00;5.68;;;1.00;99.90;;;;;;4740878;30;20061;-79
2020/12/14 01:41:10;;;;;;;7.55;5.55;;;0.90;99.90;;;;;;4741359;30;20054;-79
2020/12/14 01:43:36;;;;;;;8.57;5.57;;;0.80;99.90;;;;;;4755435;30;20062;-79
2020/12/14 01:46:08;;;;;;;6.68;5.20;;;0.80;99.90;;;;;;4741649;30;20429;-79
2020/12/14 01:48:35;;;;;;;8.90;5.75;;;0.80;99.90;;;;;;4755544;30;20535;-79
2020/12/14 01:51:01;;;;;;;8.48;5.70;;;0.80;99.90;;;;;;4755276;30;20051;-79
2020/12/14 01:53:30;;;;;;;8.48;5.78;;;0.80;99.90;;;;;;4740666;30;20047;-79
2020/12/14 01:55:56;;;;;;;8.25;5.70;;;0.80;99.90;;;;;;4755360;30;20087;-79
2020/12/14 01:58:27;;;;;;;9.10;6.25;;;0.90;99.90;;;;;;4734805;30;20047;-79
2020/12/14 02:00:53;;;;;;;31.73;6.57;;;0.90;99.90;;;;;;4740603;30;20142;-79
2020/12/14 02:03:20;;;;;;;42.25;7.60;;;0.90;99.90;;;;;;4740320;30;20154;-79
2020/12/14 02:05:51;;;;;;;34.58;7.28;;;0.80;99.90;;;;;;4741199;30;20048;-79
2020/12/14 02:08:22;;;;;;;15.88;6.43;;;0.70;99.90;;;;;;4748501;30;20054;-79
2020/12/14 02:10:53;;;;;;;25.63;6.35;;;0.60;99.90;;;;;;4741217;30;20504;-79
2020/12/14 02:13:20;;;;;;;8.73;6.00;;;0.50;99.90;;;;;;4754975;30;20419;-79
2020/12/14 02:15:46;;;;;;;25.05;6.55;;;0.50;99.90;;;;;;4755313;30;20043;-79
2020/12/14 02:18:17;;;;;;;17.63;5.93;;;0.40;99.90;;;;;;4741208;30;20547;-79
2020/12/14 02:20:44;;;;;;;21.30;6.50;;;0.40;99.90;;;;;;4754751;30;20051;-79
2020/12/14 02:23:15;;;;;;;22.90;6.30;;;0.30;99.90;;;;;;4770941;30;20047;-79
2020/12/14 02:25:41;;;;;;;29.83;7.05;;;0.30;99.90;;;;;;4740362;30;20056;-79
2020/12/14 02:28:07;;;;;;;9.68;6.13;;;0.20;99.90;;;;;;4755105;30;20051;-79
2020/12/14 02:30:39;;;;;;;9.23;6.38;;;0.20;99.90;;;;;;4740894;30;20051;-79
2020/12/14 02:33:10;;;;;;;17.95;6.68;;;0.20;99.90;;;;;;4754765;30;20052;-79
2020/12/14 02:35:36;;;;;;;12.15;6.05;;;0.10;99.90;;;;;;4740275;30;20047;-79
2020/12/14 02:38:07;;;;;;;13.95;6.03;;;0.20;99.90;;;;;;4740763;30;20309;-79
2020/12/14 02:40:34;;;;;;;17.13;5.22;;;0.10;99.90;;;;;;4754957;30;20040;-79
2020/12/14 02:43:00;;;;;;;18.58;6.15;;;0.10;99.90;;;;;;4754689;30;20059;-79
2020/12/14 02:45:31;;;;;;;8.60;5.43;;;0.00;99.90;;;;;;4740772;30;20139;-79
2020/12/14 02:47:57;;;;;;;14.15;6.43;;;0.00;99.90;;;;;;4739909;30;20158;-79
2020/12/14 02:50:23;;;;;;;17.52;6.72;;;0.00;99.90;;;;;;4754541;30;20066;-79
2020/12/14 02:52:50;;;;;;;10.73;5.93;;;-0.10;99.90;;;;;;4754503;30;20488;-79
2020/12/14 02:55:21;;;;;;;15.50;7.10;;;0.00;99.90;;;;;;4740403;30;20048;-79
2020/12/14 02:57:47;;;;;;;17.13;6.25;;;0.00;99.90;;;;;;4754297;30;20159;-79
2020/12/14 03:00:13;;;;;;;9.07;6.53;;;0.00;99.90;;;;;;4754349;30;20517;-79
2020/12/14 03:02:40;;;;;;;12.98;6.38;;;0.00;99.90;;;;;;4754018;30;20702;-79
2020/12/14 03:05:11;;;;;;;8.73;6.07;;;0.00;99.90;;;;;;4754761;30;20062;-79
2020/12/14 03:07:42;;;;;;;8.90;6.30;;;0.00;99.90;;;;;;4740240;30;20416;-79
2020/12/14 03:10:08;;;;;;;8.63;6.53;;;0.00;99.90;;;;;;4739636;30;20074;-79
2020/12/14 03:12:35;;;;;;;18.63;6.50;;;0.10;99.90;;;;;;4753996;30;20055;-79
2020/12/14 03:15:01;;;;;;;11.75;6.05;;;0.00;99.90;;;;;;4753875;30;20143;-79
2020/12/14 03:17:32;;;;;;;13.02;6.47;;;0.00;99.90;;;;;;4753970;30;20044;-79
2020/12/14 03:20:03;;;;;;;24.33;6.78;;;0.00;99.90;;;;;;4740009;30;20047;-79
2020/12/14 03:22:30;;;;;;;13.77;6.00;;;-0.10;99.90;;;;;;4739281;30;20597;-79
2020/12/14 03:25:01;;;;;;;13.57;6.70;;;-0.10;99.90;;;;;;4739817;30;20054;-79
2020/12/14 03:27:32;;;;;;;20.65;5.85;;;-0.20;99.90;;;;;;4739828;30;20056;-79
2020/12/14 03:30:04;;;;;;;10.98;6.43;;;-0.20;99.90;;;;;;4753720;30;20431;-79
2020/12/14 03:32:36;;;;;;;11.32;7.05;;;-0.20;99.90;;;;;;4739001;30;20094;-79
2020/12/14 03:35:07;;;;;;;9.88;6.40;;;-0.20;99.90;;;;;;4739522;30;20052;-79
2020/12/14 03:37:38;;;;;;;11.13;6.80;;;-0.10;99.90;;;;;;4754526;30;20047;-79
2020/12/14 03:40:10;;;;;;;12.68;7.00;;;-0.10;99.90;;;;;;4739439;30;20508;-79
2020/12/14 03:42:41;;;;;;;10.80;6.18;;;-0.10;99.90;;;;;;4739681;30;20058;-79
2020/12/14 03:45:07;;;;;;;16.27;6.78;;;-0.10;99.90;;;;;;4753288;30;20142;-79
2020/12/14 03:47:34;;;;;;;9.65;5.90;;;-0.20;99.90;;;;;;4753585;30;20159;-79
2020/12/14 03:50:05;;;;;;;15.55;5.97;;;-0.20;99.90;;;;;;4739259;30;20052;-79
2020/12/14 03:52:36;;;;;;;11.13;6.80;;;-0.20;99.90;;;;;;4753149;30;20048;-79
2020/12/14 03:55:02;;;;;;;13.65;8.07;;;-0.20;99.90;;;;;;4738293;30;20051;-79
2020/12/14 03:57:30;;;;;;;16.27;8.15;;;-0.20;99.90;;;;;;4738385;30;20150;-79
2020/12/14 04:00:03;;;;;;;11.88;7.15;;;-0.20;99.90;;;;;;4752778;30;20066;-79
2020/12/14 04:02:37;;;;;;;11.82;7.93;;;-0.20;99.90;;;;;;4768869;30;20134;-79
2020/12/14 04:05:09;;;;;;;13.75;6.82;;;-0.30;99.90;;;;;;4738536;30;20508;-79
2020/12/14 04:07:36;;;;;;;11.30;6.80;;;-0.30;99.90;;;;;;4752792;30;20130;-79
2020/12/14 04:10:07;;;;;;;10.25;6.50;;;-0.40;99.90;;;;;;4738531;30;20048;-79
2020/12/14 04:12:38;;;;;;;11.45;6.70;;;-0.40;99.90;;;;;;4738300;30;20063;-79
2020/12/14 04:15:10;;;;;;;11.00;7.38;;;-0.40;99.90;;;;;;4737996;30;20051;-79
2020/12/14 04:17:42;;;;;;;12.15;6.80;;;-0.50;99.90;;;;;;4738124;30;20066;-79
2020/12/14 04:20:08;;;;;;;12.77;7.35;;;-0.50;99.90;;;;;;4768302;30;20119;-79
2020/12/14 04:22:39;;;;;;;20.75;8.50;;;-0.50;99.90;;;;;;4738175;30;20055;-79
2020/12/14 04:25:05;;;;;;;22.40;6.80;;;-0.50;99.90;;;;;;4752246;30;20142;-79
2020/12/14 04:27:37;;;;;;;11.63;6.20;;;-0.60;99.90;;;;;;4737807;30;20138;-80
2020/12/14 04:30:03;;;;;;;14.98;6.60;;;-0.60;99.90;;;;;;4752021;30;20118;-79
2020/12/14 04:32:35;;;;;;;24.02;7.25;;;-0.60;99.90;;;;;;4751938;30;20048;-79
2020/12/14 04:35:01;;;;;;;14.38;6.72;;;-0.60;99.90;;;;;;4737291;30;20052;-79
2020/12/14 04:37:32;;;;;;;15.18;7.75;;;-0.70;99.90;;;;;;4737875;30;20047;-79
2020/12/14 04:40:05;;;;;;;15.85;7.72;;;-0.70;99.90;;;;;;4737733;30;20419;-79
2020/12/14 04:42:31;;;;;;;21.73;7.47;;;-0.70;99.90;;;;;;4752645;30;20054;-79
2020/12/14 04:45:03;;;;;;;11.63;6.47;;;-0.70;99.90;;;;;;4741246;30;20512;-79
2020/12/14 04:47:30;;;;;;;20.98;11.60;;;-0.60;99.90;;;;;;4754867;30;20060;-80
2020/12/14 04:49:57;;;;;;;28.77;16.45;;;-0.60;99.90;;;;;;4739375;30;20067;-79
2020/12/14 04:52:24;;;;;;;31.65;16.27;;;-0.60;99.90;;;;;;4732824;30;20164;-79
2020/12/14 04:54:57;;;;;;;37.28;19.13;;;-0.60;99.90;;;;;;4740163;30;20182;-79
2020/12/14 04:57:32;;;;;;;26.58;14.25;;;-0.60;99.90;;;;;;4747985;30;20055;-80
2020/12/14 04:59:58;;;;;;;23.70;12.20;;;-0.70;99.90;;;;;;4739479;30;20048;-79
2020/12/14 05:02:25;;;;;;;23.90;12.60;;;-0.70;99.90;;;;;;4739836;30;20056;-80
2020/12/14 05:04:57;;;;;;;20.50;10.68;;;-0.70;99.90;;;;;;4739516;30;20054;-80
2020/12/14 05:07:45;;;;;;;17.77;11.18;;;-0.70;99.90;;;;;;4738767;30;20159;-79
2020/12/14 05:10:12;;;;;;;17.52;9.80;;;-0.70;99.90;;;;;;4753701;30;20098;-79
2020/12/14 05:12:41;;;;;;;12.65;8.05;;;-0.70;99.90;;;;;;4748845;30;20075;-79
2020/12/14 05:15:24;;;;;;;11.15;7.15;;;-0.70;99.90;;;;;;4722356;30;20109;-79
2020/12/14 05:17:52;;;;;;;;;;;-0.70;99.90;;;;;;4736871;30;20143;-80
2020/12/14 05:20:20;;;;;;;18.55;11.10;;;-0.70;99.90;;;;;;4737001;30;19992;-79
2020/12/14 05:23:02;;;;;;;13.52;9.50;;;-0.70;99.90;;;;;;4721783;30;20055;-79
2020/12/14 05:25:29;;;;;;;15.15;9.38;;;-0.70;99.90;;;;;;4736071;30;20052;-79
2020/12/14 05:28:04;;;;;;;14.00;8.75;;;-0.80;99.90;;;;;;4751551;30;20052;-80
2020/12/14 05:30:50;;;;;;;16.70;9.90;;;-0.80;99.90;;;;;;4721214;30;20110;-79
2020/12/14 05:33:24;;;;;;;18.52;10.07;;;-0.90;99.90;;;;;;4737824;30;20050;-80
2020/12/14 05:35:51;;;;;;;15.35;8.32;;;-0.90;99.90;;;;;;4739604;30;20059;-80
2020/12/14 05:38:22;;;;;;;19.80;10.27;;;-0.90;99.90;;;;;;4754246;30;20062;-80
2020/12/14 05:40:57;;;;;;;18.05;9.32;;;-0.90;99.90;;;;;;4739228;30;20075;-80
2020/12/14 05:43:29;;;;;;;14.05;8.38;;;-0.90;99.90;;;;;;4727243;30;20068;-79
2020/12/14 05:46:10;;;;;;;12.25;6.95;;;-0.90;99.90;;;;;;4739320;30;20538;-80
2020/12/14 05:48:43;;;;;;;10.50;6.72;;;-0.80;99.90;;;;;;4739392;30;20051;-80
2020/12/14 05:51:10;;;;;;;9.48;6.75;;;-0.80;99.90;;;;;;4753628;30;20076;-79
2020/12/14 05:53:55;;;;;;;9.27;6.78;;;-0.80;99.90;;;;;;4753378;30;20047;-80
2020/12/14 05:56:26;;;;;;;12.88;7.10;;;-0.80;99.90;;;;;;4754143;30;20584;-80
2020/12/14 05:59:02;;;;;;;9.27;6.32;;;-0.80;99.90;;;;;;4739039;30;20490;-80
2020/12/14 06:01:33;;;;;;;7.10;5.60;;;-0.80;99.90;;;;;;4739938;30;20163;-80
2020/12/14 06:04:06;;;;;;;10.45;6.53;;;-0.80;99.90;;;;;;4753779;30;20055;-79
2020/12/14 06:06:46;;;;;;;8.63;6.68;;;-0.90;99.90;;;;;;4754092;30;20423;-80
2020/12/14 06:09:20;;;;;;;9.25;6.05;;;-0.90;99.90;;;;;;4753398;30;20513;-80
2020/12/14 06:11:52;;;;;;;13.98;7.50;;;-1.00;99.90;;;;;;4739223;30;20056;-79
2020/12/14 06:14:20;;;;;;;9.63;5.75;;;-0.90;99.90;;;;;;4738528;30;20090;-80
2020/12/14 06:16:47;;;;;;;9.05;5.13;;;-1.00;99.90;;;;;;4741477;30;20159;-79
2020/12/14 06:19:19;;;;;;;6.97;4.88;;;-0.90;99.90;;;;;;4734609;30;20048;-79
2020/12/14 06:22:01;;;;;;;6.53;4.50;;;-1.00;99.90;;;;;;4721143;30;20147;-79
2020/12/14 06:24:34;;;;;;;5.18;4.05;;;-0.90;99.90;;;;;;4720399;30;20044;-79
2020/12/14 06:27:09;;;;;;;6.47;4.07;;;-0.90;99.90;;;;;;4712025;30;20048;-79
2020/12/14 06:29:41;;;;;;;5.00;3.58;;;-0.90;99.90;;;;;;4730771;30;20060;-79
2020/12/14 06:32:33;;;;;;;5.43;3.78;;;-0.90;99.90;;;;;;4716909;30;20057;-79
2020/12/14 06:35:12;;;;;;;4.65;3.40;;;-0.90;99.90;;;;;;4730978;30;20529;-79
2020/12/14 06:37:50;;;;;;;3.95;3.05;;;-1.00;99.90;;;;;;4716421;30;20147;-79
2020/12/14 06:40:21;;;;;;;4.15;3.38;;;-1.00;99.90;;;;;;4735111;30;20056;-79
2020/12/14 06:42:48;;;;;;;4.93;4.15;;;-1.00;99.90;;;;;;4733589;30;20228;-79
2020/12/14 06:45:16;;;;;;;6.18;5.00;;;-1.00;99.90;;;;;;4719718;30;20143;-79
2020/12/14 06:47:52;;;;;;;6.82;5.15;;;-1.00;99.90;;;;;;4719602;30;20052;-77
2020/12/14 06:50:32;;;;;;;12.68;7.57;;;-1.00;99.90;;;;;;4733699;30;20052;-79
2020/12/14 06:53:02;;;;;;;8.52;5.47;;;-1.00;99.90;;;;;;4734516;30;20062;-79
2020/12/14 06:55:44;;;;;;;8.95;6.63;;;-0.80;99.90;;;;;;4720130;30;20147;-79
2020/12/14 06:58:32;;;;;;;11.07;6.53;;;-0.50;99.90;;;;;;4730854;30;20048;-79
2020/12/14 07:01:04;;;;;;;11.00;6.28;;;-0.50;99.90;;;;;;4733967;30;20040;-80
2020/12/14 07:03:35;;;;;;;9.07;5.90;;;-0.60;99.90;;;;;;4732666;30;20481;-79
2020/12/14 07:06:04;;;;;;;9.95;6.47;;;-0.60;99.90;;;;;;4748148;30;20157;-78
2020/12/14 07:08:41;;;;;;;9.40;5.97;;;-0.70;99.90;;;;;;4717577;30;20067;-79
2020/12/14 07:11:14;;;;;;;9.82;7.75;;;-0.80;99.90;;;;;;4732624;30;20175;-79
2020/12/14 07:13:47;;;;;;;10.85;7.43;;;-0.80;99.90;;;;;;4720175;30;20106;-79
2020/12/14 07:16:15;;;;;;;10.85;7.78;;;-0.80;99.90;;;;;;4734139;30;20083;-79
2020/12/14 07:18:48;;;;;;;8.82;6.45;;;-0.90;99.90;;;;;;4734749;30;20091;-79
2020/12/14 07:21:20;;;;;;;11.77;8.88;;;-0.90;99.90;;;;;;4750730;30;20146;-79
2020/12/14 07:23:47;;;;;;;9.18;7.57;;;-0.90;99.90;;;;;;4720009;30;20497;-79
2020/12/14 07:26:15;;;;;;;7.78;6.82;;;-0.90;99.90;;;;;;4734397;30;20060;-79
2020/12/14 07:28:48;;;;;;;9.82;6.57;;;-0.90;99.90;;;;;;4733829;30;20516;-79
2020/12/14 07:31:21;;;;;;;8.40;5.47;;;-0.90;99.90;;;;;;4734498;30;20402;-79
2020/12/14 07:33:55;;;;;;;8.25;5.50;;;-0.90;99.90;;;;;;4733971;30;20040;-80
2020/12/14 07:36:23;;;;;;;13.02;8.07;;;-0.90;99.90;;;;;;4734034;30;20071;-79
2020/12/14 07:38:58;;;;;;;14.63;9.30;;;-0.90;99.90;;;;;;4719524;30;20143;-80
2020/12/14 07:41:29;;;;;;;15.45;9.27;;;-0.90;99.90;;;;;;4733415;30;20048;-79
2020/12/14 07:43:59;;;;;;;15.20;9.88;;;-0.90;99.90;;;;;;4719764;30;20083;-79
2020/12/14 07:46:29;;;;;;;14.93;8.85;;;-0.90;99.90;;;;;;4734133;30;20484;-79
2020/12/14 07:48:59;;;;;;;13.82;9.98;;;-0.90;99.90;;;;;;4734031;30;20060;-79
2020/12/14 07:51:27;;;;;;;11.57;8.88;;;-0.90;99.90;;;;;;4719303;30;20044;-80
2020/12/14 07:54:04;;;;;;;15.00;10.35;;;-0.90;99.90;;;;;;4719627;30;20044;-79
2020/12/14 07:56:42;;;;;;;18.17;12.27;;;-0.90;99.90;;;;;;4733566;30;20142;-79
2020/12/14 07:59:18;;;;;;;30.17;17.10;;;-0.90;99.90;;;;;;4718507;30;20052;-80
2020/12/14 08:01:50;;;;;;;24.52;14.45;;;-0.90;99.90;;;;;;4718984;30;20106;-79
2020/12/14 08:04:27;;;;;;;16.33;11.35;;;-0.90;99.90;;;;;;4718217;30;20052;-79
2020/12/14 08:07:00;;;;;;;16.25;10.88;;;-0.90;99.90;;;;;;4733091;30;20142;-79
2020/12/14 08:09:37;;;;;;;16.15;10.80;;;-0.90;99.90;;;;;;4718416;30;20060;-79
2020/12/14 08:12:10;;;;;;;18.95;12.35;;;-0.90;99.90;;;;;;4732877;30;20062;-79
2020/12/14 08:14:38;;;;;;;16.25;12.07;;;-1.00;99.90;;;;;;4718626;30;20540;-79
2020/12/14 08:17:11;;;;;;;16.75;11.77;;;-1.00;99.90;;;;;;4733236;30;20048;-79
2020/12/14 08:19:39;;;;;;;21.25;14.07;;;-0.90;99.90;;;;;;4735261;30;20102;-79
2020/12/14 08:22:09;;;;;;;22.00;13.57;;;-0.90;99.90;;;;;;4721891;30;20056;-79
2020/12/14 08:24:38;;;;;;;21.50;14.35;;;-0.90;99.90;;;;;;4721522;30;20063;-79
2020/12/14 08:27:11;;;;;;;21.75;15.57;;;-0.90;99.90;;;;;;4720915;30;20067;-79
2020/12/14 08:30:07;;;;;;;25.58;16.30;;;-0.80;99.90;;;;;;4735533;30;20052;-79
2020/12/14 08:32:35;;;;;;;23.33;16.00;;;-0.70;99.90;;;;;;4720958;30;20065;-79
2020/12/14 08:35:23;;;;;;;22.75;15.38;;;-0.70;99.90;;;;;;4721407;30;20098;-79
2020/12/14 08:41:03;;;;;;;22.23;14.65;;;-0.60;99.90;;;;;;5609185;24;20086;-80
2020/12/14 09:04:08;;;;;;;18.10;12.63;;;-0.20;99.90;;;;;;5343695;24;20067;-79
2020/12/14 09:10:33;;;;;;;18.10;11.77;;;0.30;99.90;;;;;;4923097;24;20043;-81
2020/12/14 10:20:15;;;;;;;15.90;11.02;;;1.30;99.90;;;;;;4961303;24;20082;-81
2020/12/14 10:22:42;;;;;;;16.38;10.18;;;1.50;99.90;;;;;;4741165;30;20048;-81
2020/12/14 10:25:14;;;;;;;17.83;11.48;;;1.50;99.90;;;;;;4750759;30;20056;-81
2020/12/14 10:27:42;;;;;;;15.27;11.50;;;1.60;99.90;;;;;;4752685;30;20079;-80
2020/12/14 10:30:09;;;;;;;17.15;11.60;;;1.60;99.90;;;;;;4738630;30;20138;-79
2020/12/14 10:32:38;;;;;;;15.68;11.15;;;1.60;99.90;;;;;;4753138;30;20056;-79
2020/12/14 10:35:06;;;;;;;14.65;10.38;;;1.70;99.90;;;;;;4752435;30;20155;-80
2020/12/14 10:37:34;;;;;;;15.30;10.82;;;1.80;99.90;;;;;;4752772;30;20052;-80
2020/12/14 10:40:04;;;;;;;12.07;8.65;;;1.80;99.90;;;;;;4751819;30;20059;-79
2020/12/14 10:42:37;;;;;;;12.43;9.05;;;1.90;99.90;;;;;;4751827;30;20079;-79
2020/12/14 11:13:06;;;;;;;10.73;8.25;;;2.70;99.90;;;;;;5108487;24;20106;-81
2020/12/14 11:15:34;;;;;;;13.75;9.63;;;2.90;99.90;;;;;;4724075;30;20048;-81
2020/12/14 11:18:06;;;;;;;14.27;8.95;;;2.90;99.90;;;;;;4738660;30;20052;-81
2020/12/14 11:20:34;;;;;;;14.43;10.10;;;3.00;99.90;;;;;;4738252;30;20531;-81
2020/12/14 11:23:02;;;;;;;14.85;10.85;;;3.00;99.90;;;;;;4738276;30;20574;-81
2020/12/14 12:20:54;;;;;;;10.80;7.60;;;4.50;99.90;;;;;;4749154;30;20048;-79
2020/12/14 15:56:22;;;;;;;6.30;4.90;;;3.70;99.90;;;;;;4581097;24;20063;-80
2020/12/14 15:58:51;;;;;;;6.07;4.35;;;3.60;99.90;;;;;;4773652;30;20051;-80
2020/12/14 16:01:22;;;;;;;5.13;4.40;;;3.60;99.90;;;;;;4760644;30;20064;-81
2020/12/14 16:03:51;;;;;;;5.55;4.07;;;3.70;99.90;;;;;;4769293;30;20052;-80
2020/12/14 16:06:18;;;;;;;7.03;4.25;;;3.70;99.90;;;;;;4743494;30;20535;-80
2020/12/14 16:08:48;;;;;;;5.35;4.85;;;3.70;99.90;;;;;;4741137;30;20048;-81
2020/12/14 16:11:16;;;;;;;5.95;4.75;;;3.70;99.90;;;;;;4740771;30;20406;-81
2020/12/14 16:13:45;;;;;;;7.50;6.30;;;3.70;99.90;;;;;;4757520;30;20050;-80
2020/12/14 16:16:15;;;;;;;7.95;4.78;;;3.70;99.90;;;;;;4758571;30;20048;-80
2020/12/14 16:18:43;;;;;;;6.15;5.25;;;3.70;99.90;;;;;;4744703;30;20054;-80
2020/12/14 16:21:11;;;;;;;5.60;4.10;;;3.70;99.90;;;;;;4757317;30;20131;-80
2020/12/14 16:23:39;;;;;;;5.32;3.92;;;3.70;99.90;;;;;;4742044;30;20058;-80
2020/12/14 16:26:07;;;;;;;4.18;3.28;;;3.70;99.90;;;;;;4743882;30;20052;-81
2020/12/14 16:28:35;;;;;;;4.75;3.40;;;3.70;99.90;;;;;;4757490;30;20150;-81
2020/12/14 16:31:09;;;;;;;4.75;3.35;;;3.60;99.90;;;;;;4743945;30;20062;-80
2020/12/14 16:33:38;;;;;;;7.35;6.60;;;3.50;99.90;;;;;;4758258;30;20142;-81
2020/12/14 16:36:07;;;;;;;7.20;5.65;;;3.50;99.90;;;;;;4741261;30;20048;-80
2020/12/14 16:38:42;;;;;;;5.18;4.38;;;3.40;99.90;;;;;;4756615;30;20415;-80
2020/12/14 16:41:15;;;;;;;5.15;4.68;;;3.40;99.90;;;;;;4745766;30;20058;-81
2020/12/14 16:43:44;;;;;;;4.63;4.10;;;3.30;99.90;;;;;;4755750;30;20052;-80
2020/12/14 16:46:17;;;;;;;4.10;2.97;;;3.30;99.90;;;;;;4728772;30;20052;-80
2020/12/14 16:48:49;;;;;;;5.03;3.75;;;3.20;99.90;;;;;;4741662;30;20139;-79
2020/12/14 16:51:16;;;;;;;4.55;3.65;;;3.20;99.90;;;;;;4738456;30;20060;-80
2020/12/14 16:53:42;;;;;;;133.68;65.60;;;3.10;99.90;;;;;;4734575;30;20066;-79
2020/12/14 16:56:10;;;;;;;86.43;45.53;;;3.10;99.90;;;;;;4749683;30;20049;-79
2020/12/14 16:58:41;;;;;;;18.50;10.23;;;3.00;99.90;;;;;;4734307;30;20044;-79
2020/12/14 17:01:10;;;;;;;8.43;5.30;;;3.00;99.90;;;;;;4722566;30;20667;-80
2020/12/14 17:03:37;;;;;;;42.55;20.23;;;3.00;99.90;;;;;;4722670;30;20139;-80
2020/12/14 17:06:06;;;;;;;48.53;25.20;;;3.00;99.90;;;;;;4722639;30;20048;-80
2020/12/14 17:08:34;;;;;;;23.75;12.93;;;2.90;99.90;;;;;;4737042;30;20058;-80
2020/12/14 17:11:10;;;;;;;10.52;6.53;;;2.90;99.90;;;;;;4742997;30;20125;-81
2020/12/14 17:13:37;;;;;;;5.95;4.43;;;2.90;99.90;;;;;;4751212;30;20047;-81
2020/12/14 17:16:05;;;;;;;4.65;3.15;;;2.90;99.90;;;;;;4759400;30;20051;-81
2020/12/14 17:18:32;;;;;;;4.57;3.38;;;2.90;99.90;;;;;;4741884;30;20055;-81
2020/12/14 17:20:59;;;;;;;5.55;3.78;;;2.80;99.90;;;;;;4758500;30;20086;-80
2020/12/14 17:23:28;;;;;;;5.38;3.30;;;2.80;99.90;;;;;;4756203;30;20146;-81
2020/12/14 17:25:55;;;;;;;6.03;5.43;;;2.80;99.90;;;;;;4756509;30;20051;-80
2020/12/14 17:28:23;;;;;;;7.20;5.70;;;2.70;99.90;;;;;;4756053;30;20098;-80
2020/12/14 17:30:55;;;;;;;5.10;4.43;;;2.70;99.90;;;;;;4743203;30;20067;-80
2020/12/14 17:33:30;;;;;;;5.80;3.92;;;2.70;99.90;;;;;;4743458;30;20867;-80
2020/12/14 17:36:05;;;;;;;6.25;4.07;;;2.70;99.90;;;;;;4758223;30;20056;-81
2020/12/14 17:38:37;;;;;;;5.72;3.88;;;2.70;99.90;;;;;;4737895;30;20047;-79
2020/12/14 17:41:05;;;;;;;4.70;3.15;;;2.70;99.90;;;;;;4738862;30;20082;-80
2020/12/14 17:43:31;;;;;;;4.72;3.15;;;2.70;99.90;;;;;;4738873;30;20083;-81
2020/12/14 17:45:58;;;;;;;4.72;3.28;;;2.70;99.90;;;;;;4738748;30;20051;-81
2020/12/14 17:48:24;;;;;;;4.47;3.88;;;2.70;99.90;;;;;;4736802;30;20138;-79
2020/12/14 17:50:55;;;;;;;3.83;3.13;;;2.70;99.90;;;;;;4718690;30;20048;-79
2020/12/14 17:53:27;;;;;;;3.67;2.85;;;2.60;99.90;;;;;;4731957;30;20153;-79
2020/12/14 17:55:53;;;;;;;3.38;2.63;;;2.60;99.90;;;;;;4707740;30;20060;-79
2020/12/14 17:58:19;;;;;;;3.60;2.95;;;2.50;99.90;;;;;;4733267;30;20409;-79
2020/12/14 18:00:50;;;;;;;3.88;3.47;;;2.50;99.90;;;;;;4720035;30;20051;-79
2020/12/14 18:03:16;;;;;;;4.15;2.90;;;2.50;99.90;;;;;;4732410;30;20541;-79
2020/12/14 18:05:48;;;;;;;3.72;2.92;;;2.50;99.90;;;;;;4720033;30;20513;-79
2020/12/14 18:08:14;;;;;;;3.72;3.05;;;2.50;99.90;;;;;;4718886;30;20053;-79
2020/12/14 18:10:45;;;;;;;4.47;3.50;;;2.40;99.90;;;;;;4720059;30;20071;-78
2020/12/14 18:13:12;;;;;;;6.25;4.47;;;2.40;99.90;;;;;;4733870;30;20438;-79
2020/12/14 18:15:43;;;;;;;6.90;4.80;;;2.40;99.90;;;;;;4734019;30;20398;-78
2020/12/14 18:18:13;;;;;;;6.15;4.90;;;2.40;99.90;;;;;;4733711;30;20068;-79
2020/12/14 18:20:39;;;;;;;5.35;4.78;;;2.30;99.90;;;;;;4733916;30;20098;-79
2020/12/14 18:23:10;;;;;;;4.80;4.20;;;2.30;99.90;;;;;;4720265;30;20056;-79
2020/12/14 18:25:37;;;;;;;5.07;3.95;;;2.30;99.90;;;;;;4733875;30;20056;-78
2020/12/14 18:28:08;;;;;;;9.32;8.32;;;2.30;99.90;;;;;;4720621;30;20399;-80
2020/12/14 18:30:39;;;;;;;7.43;6.32;;;2.20;99.90;;;;;;4736205;30;20132;-80
2020/12/14 18:34:58;;;;;;;9.38;6.65;;;2.20;99.90;;;;;;4722360;30;20059;-81
2020/12/14 19:41:51;;;;;;;6.65;5.30;;;2.20;99.90;;;;;;4732629;30;20424;-81
2020/12/14 21:23:12;;;;;;;20.02;12.30;;;1.80;99.90;;;;;;4736855;30;20048;-80
2020/12/14 21:25:44;;;;;;;18.52;13.05;;;1.80;99.90;;;;;;4735029;30;20056;-81
2020/12/14 21:28:10;;;;;;;21.15;12.95;;;1.70;99.90;;;;;;4735587;30;20151;-80
2020/12/14 21:30:41;;;;;;;16.70;11.32;;;1.70;99.90;;;;;;4736175;30;20060;-81
2020/12/14 21:33:13;;;;;;;19.13;11.55;;;1.80;99.90;;;;;;4737248;30;20107;-81
2020/12/14 21:35:39;;;;;;;15.63;10.73;;;1.80;99.90;;;;;;4721547;30;20521;-81
2020/12/14 21:38:10;;;;;;;18.27;11.90;;;1.80;99.90;;;;;;4735823;30;20764;-81
2020/12/14 21:40:41;;;;;;;17.52;11.65;;;1.70;99.90;;;;;;4722015;30;20140;-81
2020/12/14 21:43:08;;;;;;;15.98;11.40;;;1.70;99.90;;;;;;4736356;30;20088;-81
2020/12/14 21:45:39;;;;;;;16.02;10.82;;;1.70;99.90;;;;;;4722121;30;20063;-81
2020/12/14 21:48:06;;;;;;;12.60;9.27;;;1.70;99.90;;;;;;4735716;30;20124;-81
2020/12/14 21:50:32;;;;;;;15.70;11.52;;;1.80;99.90;;;;;;4736570;30;20110;-80
2020/12/14 21:53:00;;;;;;;16.30;10.63;;;1.80;99.90;;;;;;4719464;30;20113;-80
2020/12/14 21:55:28;;;;;;;17.90;11.40;;;1.80;99.90;;;;;;4732928;30;20052;-80
2020/12/14 21:57:56;;;;;;;14.23;10.45;;;1.80;99.90;;;;;;4732685;30;20056;-80
2020/12/14 22:00:27;;;;;;;14.68;10.90;;;1.80;99.90;;;;;;4710848;30;20055;-80
2020/12/14 22:02:55;;;;;;;17.77;10.98;;;1.80;99.90;;;;;;4719068;30;20079;-80
2020/12/14 22:05:22;;;;;;;16.60;10.90;;;1.80;99.90;;;;;;4718434;30;20599;-80
2020/12/14 22:07:52;;;;;;;14.40;10.55;;;1.80;99.90;;;;;;4718012;30;20056;-80
2020/12/14 22:10:20;;;;;;;14.95;10.77;;;1.80;99.90;;;;;;4718371;30;20147;-79
2020/12/14 22:12:48;;;;;;;17.27;11.10;;;1.80;99.90;;;;;;4733573;30;20052;-81
2020/12/14 22:15:20;;;;;;;17.35;11.18;;;1.80;99.90;;;;;;4718922;30;20469;-79
2020/12/14 22:17:47;;;;;;;16.25;11.05;;;1.80;99.90;;;;;;4718071;30;20056;-80